Time;durP1;ratioP1;P1;durP2;ratioP2;P2;SDS_P1;SDS_P2;PMS_P1;PMS_P2;Temp;Humidity;BMP_temperature;BMP_pressure;BME280_temperature;BME280_humidity;BME280_pressure;Samples;Min_cycle;Max_cycle;Signal;HPM_P1;HPM_P2
2023/01/20 00:01:13;;;;;;;22.67;12.10;;;;;;;;;;5034873;28;20041;-69
2023/01/20 00:03:40;;;;;;;27.55;14.10;;;;;;;;;;5034315;28;20071;-69
2023/01/20 00:06:07;;;;;;;25.92;13.45;;;;;;;;;;5034666;28;20527;-70
2023/01/20 00:08:32;;;;;;;25.60;13.65;;;;;;;;;;5034614;28;20378;-69
2023/01/20 00:11:02;;;;;;;24.35;13.43;;;;;;;;;;5034653;28;20037;-69
2023/01/20 00:13:27;;;;;;;25.27;13.27;;;;;;;;;;5034259;28;20026;-69
2023/01/20 00:15:53;;;;;;;27.73;14.43;;;;;;;;;;5034486;28;20052;-69
2023/01/20 00:18:18;;;;;;;23.63;12.07;;;;;;;;;;5034300;28;20088;-70
2023/01/20 00:20:43;;;;;;;29.30;12.93;;;;;;;;;;5034481;28;20024;-69
2023/01/20 00:23:09;;;;;;;25.50;12.60;;;;;;;;;;5033928;28;20076;-69
2023/01/20 00:25:35;;;;;;;29.48;13.63;;;;;;;;;;5034226;28;20108;-69
2023/01/20 00:28:01;;;;;;;23.60;13.20;;;;;;;;;;5034039;28;20040;-69
2023/01/20 00:30:26;;;;;;;24.15;12.77;;;;;;;;;;5034120;28;20030;-69
2023/01/20 00:32:52;;;;;;;27.30;13.30;;;;;;;;;;5034437;28;20036;-70
2023/01/20 00:35:17;;;;;;;29.45;13.90;;;;;;;;;;5034015;28;20055;-70
2023/01/20 00:37:42;;;;;;;30.77;13.35;;;;;;;;;;5033893;28;20108;-69
2023/01/20 00:40:09;;;;;;;24.00;12.98;;;;;;;;;;5034145;28;20021;-70
2023/01/20 00:42:34;;;;;;;28.25;13.52;;;;;;;;;;5033582;28;20026;-70
2023/01/20 00:44:59;;;;;;;27.15;14.57;;;;;;;;;;5033997;28;20033;-69
2023/01/20 00:47:25;;;;;;;26.63;14.48;;;;;;;;;;5033878;28;20022;-69
2023/01/20 00:49:50;;;;;;;28.30;14.18;;;;;;;;;;5033844;28;20040;-69
2023/01/20 00:52:17;;;;;;;25.17;13.30;;;;;;;;;;5033778;28;20053;-70
2023/01/20 00:54:43;;;;;;;27.55;14.07;;;;;;;;;;5033865;28;20041;-71
2023/01/20 00:57:09;;;;;;;25.42;13.63;;;;;;;;;;5014464;28;20030;-69
2023/01/20 00:59:34;;;;;;;25.75;13.95;;;;;;;;;;5029024;28;20104;-68
2023/01/20 01:02:00;;;;;;;23.48;13.32;;;;;;;;;;5020731;28;20057;-70
2023/01/20 01:04:25;;;;;;;26.92;14.70;;;;;;;;;;5033355;28;20080;-69
2023/01/20 01:06:50;;;;;;;28.73;13.63;;;;;;;;;;5033490;28;20025;-69
2023/01/20 01:09:16;;;;;;;31.15;15.23;;;;;;;;;;5033319;28;20025;-69
2023/01/20 01:11:41;;;;;;;23.60;13.55;;;;;;;;;;5033281;28;20604;-69
2023/01/20 01:14:07;;;;;;;27.20;13.80;;;;;;;;;;5033473;28;20037;-69
2023/01/20 01:16:32;;;;;;;25.42;13.73;;;;;;;;;;5033401;28;20064;-70
2023/01/20 01:18:58;;;;;;;23.35;13.02;;;;;;;;;;5033356;28;20059;-70
2023/01/20 01:21:24;;;;;;;21.85;13.00;;;;;;;;;;5033334;28;20418;-69
2023/01/20 01:23:51;;;;;;;21.70;12.98;;;;;;;;;;5033182;28;20086;-69
2023/01/20 01:26:16;;;;;;;24.05;13.15;;;;;;;;;;5032916;28;20525;-69
2023/01/20 01:28:42;;;;;;;22.60;12.80;;;;;;;;;;5033276;28;20030;-69
2023/01/20 01:31:09;;;;;;;23.98;13.32;;;;;;;;;;5033157;28;20425;-69
2023/01/20 01:33:34;;;;;;;22.48;12.80;;;;;;;;;;5032590;28;20036;-69
2023/01/20 01:36:01;;;;;;;24.90;13.75;;;;;;;;;;5032803;28;20025;-69
2023/01/20 01:38:28;;;;;;;21.17;12.90;;;;;;;;;;5032940;28;20032;-69
2023/01/20 01:40:54;;;;;;;25.30;13.38;;;;;;;;;;5032675;28;20018;-69
2023/01/20 01:43:34;;;;;;;24.42;12.73;;;;;;;;;;5032839;28;20037;-69
2023/01/20 01:46:00;;;;;;;28.52;14.05;;;;;;;;;;5032958;28;20044;-69
2023/01/20 01:48:45;;;;;;;24.55;13.15;;;;;;;;;;5032699;28;20388;-69
2023/01/20 01:51:22;;;;;;;25.02;13.50;;;;;;;;;;5032009;28;20042;-69
2023/01/20 01:53:52;;;;;;;24.38;13.35;;;;;;;;;;5031484;28;20031;-69
2023/01/20 01:56:19;;;;;;;;;;;;;;;;;;5020351;28;20048;-67
2023/01/20 01:58:48;;;;;;;26.15;12.02;;;;;;;;;;5032680;28;19909;-69
2023/01/20 02:01:14;;;;;;;26.00;13.07;;;;;;;;;;5032493;28;20036;-69
2023/01/20 02:04:03;;;;;;;28.95;13.70;;;;;;;;;;5029126;28;20045;-69
2023/01/20 02:06:32;;;;;;;26.85;12.13;;;;;;;;;;5032521;28;20068;-69
2023/01/20 02:09:00;;;;;;;26.33;13.68;;;;;;;;;;5032586;28;20331;-69
2023/01/20 02:11:27;;;;;;;25.63;13.20;;;;;;;;;;5032236;28;20075;-69
2023/01/20 02:13:53;;;;;;;21.20;12.27;;;;;;;;;;5032477;28;20389;-71
2023/01/20 02:16:42;;;;;;;22.25;12.18;;;;;;;;;;5032440;28;20025;-71
2023/01/20 02:19:41;;;;;;;19.23;12.07;;;;;;;;;;5021508;28;20175;-68
2023/01/20 02:22:51;;;;;;;21.27;12.27;;;;;;;;;;5028267;28;20128;-69
2023/01/20 02:25:37;;;;;;;30.90;13.10;;;;;;;;;;4951902;29;20035;-71
2023/01/20 02:28:39;;;;;;;31.20;11.85;;;;;;;;;;4952167;29;20276;-71
2023/01/20 02:31:32;;;;;;;25.98;12.70;;;;;;;;;;4951474;28;20043;-71
2023/01/20 02:34:03;;;;;;;24.30;12.48;;;;;;;;;;4952170;28;20027;-70
2023/01/20 02:36:56;;;;;;;26.65;11.70;;;;;;;;;;4952039;28;20106;-72
2023/01/20 02:39:29;;;;;;;24.40;12.88;;;;;;;;;;4951796;29;20488;-72
2023/01/20 02:42:10;;;;;;;23.92;12.48;;;;;;;;;;4935926;29;20043;-69
2023/01/20 02:45:13;;;;;;;25.95;12.60;;;;;;;;;;4951846;28;20035;-72
2023/01/20 02:47:39;;;;;;;24.02;12.57;;;;;;;;;;4917712;29;20051;-70
2023/01/20 02:50:12;;;;;;;23.90;13.18;;;;;;;;;;4917728;29;20039;-70
2023/01/20 02:52:47;;;;;;;23.95;12.20;;;;;;;;;;4917586;29;20080;-69
2023/01/20 02:55:22;;;;;;;23.42;12.07;;;;;;;;;;4917447;29;20084;-70
2023/01/20 02:57:55;;;;;;;24.95;12.23;;;;;;;;;;4917611;29;20032;-72
2023/01/20 03:00:28;;;;;;;23.80;12.10;;;;;;;;;;4931233;29;20046;-69
2023/01/20 03:02:57;;;;;;;20.55;12.05;;;;;;;;;;4955397;29;20586;-70
2023/01/20 03:05:29;;;;;;;23.97;12.83;;;;;;;;;;4974083;28;20050;-70
2023/01/20 03:07:58;;;;;;;21.35;11.80;;;;;;;;;;4974626;28;20035;-70
2023/01/20 03:10:26;;;;;;;25.50;12.98;;;;;;;;;;4974856;28;20086;-70
2023/01/20 03:12:58;;;;;;;24.00;12.20;;;;;;;;;;4974812;28;20538;-71
2023/01/20 03:15:33;;;;;;;25.13;12.90;;;;;;;;;;4974637;28;20051;-71
2023/01/20 03:17:59;;;;;;;23.80;12.15;;;;;;;;;;4974788;28;20038;-71
2023/01/20 03:20:24;;;;;;;21.08;12.30;;;;;;;;;;4976422;28;20023;-71
2023/01/20 03:22:50;;;;;;;19.73;11.95;;;;;;;;;;5055153;28;20369;-70
2023/01/20 03:25:17;;;;;;;21.52;12.05;;;;;;;;;;5055389;28;20029;-71
2023/01/20 03:27:43;;;;;;;21.02;11.15;;;;;;;;;;5055430;28;20381;-70
2023/01/20 03:30:13;;;;;;;24.27;11.63;;;;;;;;;;5055400;28;20021;-70
2023/01/20 03:32:41;;;;;;;21.30;12.15;;;;;;;;;;5055160;28;20436;-70
2023/01/20 03:35:08;;;;;;;21.15;11.65;;;;;;;;;;5055136;28;20021;-70
2023/01/20 03:37:33;;;;;;;20.65;12.00;;;;;;;;;;5055018;28;20028;-70
2023/01/20 03:40:00;;;;;;;21.25;11.88;;;;;;;;;;5055216;28;20017;-70
2023/01/20 03:42:41;;;;;;;25.63;12.73;;;;;;;;;;5055072;28;20048;-70
2023/01/20 03:45:06;;;;;;;;;;;;;;;;;;5055545;28;20053;-71
2023/01/20 03:47:50;;;;;;;19.70;10.80;;;;;;;;;;5054983;28;20277;-71
2023/01/20 03:50:30;;;;;;;19.98;10.52;;;;;;;;;;5054953;28;20021;-70
2023/01/20 03:53:10;;;;;;;19.92;10.68;;;;;;;;;;5054662;28;20028;-69
2023/01/20 03:55:45;;;;;;;20.92;10.70;;;;;;;;;;5054849;28;20139;-70
2023/01/20 03:58:15;;;;;;;22.95;11.35;;;;;;;;;;5054223;28;20108;-70
2023/01/20 04:00:47;;;;;;;22.65;12.10;;;;;;;;;;5037330;28;20029;-70
2023/01/20 04:03:18;;;;;;;23.00;11.55;;;;;;;;;;5054170;28;20053;-70
2023/01/20 04:05:45;;;;;;;30.63;12.60;;;;;;;;;;5054443;28;20036;-70
2023/01/20 04:08:13;;;;;;;22.35;11.48;;;;;;;;;;5054637;28;20028;-70
2023/01/20 04:10:42;;;;;;;22.45;12.15;;;;;;;;;;5054645;28;20021;-70
2023/01/20 04:13:08;;;;;;;17.73;9.68;;;;;;;;;;5054524;28;20119;-70
2023/01/20 04:15:37;;;;;;;22.52;12.02;;;;;;;;;;5054689;28;20271;-70
2023/01/20 04:18:29;;;;;;;21.20;10.45;;;;;;;;;;5054448;28;20033;-71
2023/01/20 04:21:02;;;;;;;20.45;10.93;;;;;;;;;;5050187;28;20424;-70
2023/01/20 04:23:30;;;;;;;18.05;9.45;;;;;;;;;;5054284;28;20033;-70
2023/01/20 04:25:56;;;;;;;22.45;12.05;;;;;;;;;;5054453;28;20021;-70
2023/01/20 04:28:21;;;;;;;27.13;12.63;;;;;;;;;;5054149;28;20319;-70
2023/01/20 04:30:47;;;;;;;26.77;12.05;;;;;;;;;;5054215;28;20029;-70
2023/01/20 04:33:12;;;;;;;21.13;11.10;;;;;;;;;;5054109;28;20044;-70
2023/01/20 04:35:38;;;;;;;24.15;11.07;;;;;;;;;;5053955;28;20064;-70
2023/01/20 04:38:03;;;;;;;25.58;13.40;;;;;;;;;;5054073;28;20056;-70
2023/01/20 04:40:28;;;;;;;27.25;13.23;;;;;;;;;;5053869;28;20024;-70
2023/01/20 04:42:54;;;;;;;27.52;13.30;;;;;;;;;;5053876;28;20036;-70
2023/01/20 04:45:19;;;;;;;21.63;9.93;;;;;;;;;;5053828;28;20029;-71
2023/01/20 04:47:45;;;;;;;14.68;8.30;;;;;;;;;;5053895;28;20017;-70
2023/01/20 04:50:11;;;;;;;21.05;11.43;;;;;;;;;;5035731;28;20408;-70
2023/01/20 04:52:37;;;;;;;22.55;11.43;;;;;;;;;;5053601;28;20021;-70
2023/01/20 04:55:02;;;;;;;18.73;9.93;;;;;;;;;;5053727;28;20029;-70
2023/01/20 04:57:28;;;;;;;23.13;12.18;;;;;;;;;;5053558;28;20027;-70
2023/01/20 04:59:53;;;;;;;24.67;12.02;;;;;;;;;;5053596;28;20041;-70
2023/01/20 05:02:19;;;;;;;30.70;12.75;;;;;;;;;;5053193;28;20041;-70
2023/01/20 05:04:44;;;;;;;21.23;10.98;;;;;;;;;;5053258;28;20055;-70
2023/01/20 05:07:10;;;;;;;25.23;11.13;;;;;;;;;;5053435;28;20025;-70
2023/01/20 05:09:36;;;;;;;18.50;9.23;;;;;;;;;;5052420;28;20025;-70
2023/01/20 05:12:01;;;;;;;22.17;9.48;;;;;;;;;;5053427;28;20354;-70
2023/01/20 05:14:27;;;;;;;28.50;11.70;;;;;;;;;;5053414;28;20534;-70
2023/01/20 05:16:52;;;;;;;25.92;12.88;;;;;;;;;;5035565;28;20029;-70
2023/01/20 05:19:17;;;;;;;27.83;12.55;;;;;;;;;;5052800;28;20484;-70
2023/01/20 05:21:43;;;;;;;24.30;11.80;;;;;;;;;;5053406;28;20381;-70
2023/01/20 05:24:08;;;;;;;23.23;11.00;;;;;;;;;;5053150;28;20037;-70
2023/01/20 05:26:34;;;;;;;22.67;10.77;;;;;;;;;;5053086;28;20112;-70
2023/01/20 05:29:01;;;;;;;20.27;10.05;;;;;;;;;;5052952;28;20163;-70
2023/01/20 05:31:27;;;;;;;26.83;11.00;;;;;;;;;;5035083;28;20036;-70
2023/01/20 05:33:53;;;;;;;18.60;8.98;;;;;;;;;;5035026;28;20021;-69
2023/01/20 05:36:18;;;;;;;17.70;9.82;;;;;;;;;;5052758;28;20032;-70
2023/01/20 05:38:44;;;;;;;18.63;9.05;;;;;;;;;;5053079;28;20103;-70
2023/01/20 05:41:09;;;;;;;20.38;10.20;;;;;;;;;;5052553;28;20032;-70
2023/01/20 05:43:35;;;;;;;20.98;8.50;;;;;;;;;;5052658;28;20464;-70
2023/01/20 05:46:01;;;;;;;14.05;7.53;;;;;;;;;;5052678;28;20040;-70
2023/01/20 05:48:26;;;;;;;23.35;8.23;;;;;;;;;;5034722;28;20374;-70
2023/01/20 05:50:52;;;;;;;16.23;8.55;;;;;;;;;;5052689;28;20079;-70
2023/01/20 05:53:18;;;;;;;26.88;8.88;;;;;;;;;;5052526;28;20385;-69
2023/01/20 05:55:43;;;;;;;24.08;8.60;;;;;;;;;;5052579;28;20388;-70
2023/01/20 05:58:09;;;;;;;19.75;7.95;;;;;;;;;;5052578;28;20032;-70
2023/01/20 06:00:35;;;;;;;13.30;5.95;;;;;;;;;;5052357;28;20033;-70
2023/01/20 06:03:01;;;;;;;16.98;8.07;;;;;;;;;;5052167;28;20496;-71
2023/01/20 06:05:27;;;;;;;18.17;8.27;;;;;;;;;;5052032;28;20029;-70
2023/01/20 06:07:55;;;;;;;10.95;5.47;;;;;;;;;;5052456;28;20067;-69
2023/01/20 06:10:24;;;;;;;17.48;6.45;;;;;;;;;;5052314;28;20081;-68
2023/01/20 06:12:53;;;;;;;21.02;7.75;;;;;;;;;;5052349;28;20029;-70
2023/01/20 06:15:19;;;;;;;14.95;7.00;;;;;;;;;;5052307;28;20029;-69
2023/01/20 06:17:44;;;;;;;14.88;7.57;;;;;;;;;;5051996;28;20104;-70
2023/01/20 06:20:10;;;;;;;15.55;7.22;;;;;;;;;;5034122;28;20568;-70
2023/01/20 06:22:36;;;;;;;24.67;7.45;;;;;;;;;;5051986;28;20389;-70
2023/01/20 06:25:01;;;;;;;16.95;7.28;;;;;;;;;;5052020;28;20068;-70
2023/01/20 06:27:27;;;;;;;20.80;7.70;;;;;;;;;;5052012;28;20354;-70
2023/01/20 06:29:52;;;;;;;17.48;7.80;;;;;;;;;;5052006;28;20029;-70
2023/01/20 06:32:18;;;;;;;19.35;7.15;;;;;;;;;;5051801;28;20060;-70
2023/01/20 06:34:44;;;;;;;13.10;7.68;;;;;;;;;;5052040;28;20029;-70
2023/01/20 06:37:09;;;;;;;16.67;8.05;;;;;;;;;;5051983;28;20032;-71
2023/01/20 06:39:35;;;;;;;20.10;6.95;;;;;;;;;;5051944;28;20033;-70
2023/01/20 06:42:00;;;;;;;18.08;7.55;;;;;;;;;;5051877;28;20032;-70
2023/01/20 06:44:26;;;;;;;19.83;7.85;;;;;;;;;;5051750;28;20036;-70
2023/01/20 06:46:52;;;;;;;18.20;7.30;;;;;;;;;;5051946;28;20029;-70
2023/01/20 06:49:17;;;;;;;17.50;7.55;;;;;;;;;;5051715;28;20017;-71
2023/01/20 06:51:43;;;;;;;16.85;6.68;;;;;;;;;;5051917;28;20112;-72
2023/01/20 06:54:09;;;;;;;15.90;7.80;;;;;;;;;;5051890;28;20037;-71
2023/01/20 06:56:34;;;;;;;13.52;6.75;;;;;;;;;;5051648;28;20381;-71
2023/01/20 06:59:00;;;;;;;19.70;7.38;;;;;;;;;;5051852;28;20017;-71
2023/01/20 07:01:27;;;;;;;20.95;7.72;;;;;;;;;;5051682;28;20500;-71
2023/01/20 07:03:53;;;;;;;16.10;7.20;;;;;;;;;;5051403;28;20136;-70
2023/01/20 07:06:27;;;;;;;15.85;7.55;;;;;;;;;;5051467;28;20061;-70
2023/01/20 07:08:53;;;;;;;19.98;8.38;;;;;;;;;;5051695;28;20029;-71
2023/01/20 07:11:18;;;;;;;26.85;10.05;;;;;;;;;;5051220;28;20357;-70
2023/01/20 07:13:44;;;;;;;23.40;9.90;;;;;;;;;;5031884;28;20453;-71
2023/01/20 07:16:10;;;;;;;26.95;10.20;;;;;;;;;;5032055;28;20030;-71
2023/01/20 07:18:36;;;;;;;23.05;9.68;;;;;;;;;;5031797;28;20030;-71
2023/01/20 07:21:02;;;;;;;22.25;8.05;;;;;;;;;;5031849;28;20025;-71
2023/01/20 07:23:30;;;;;;;21.00;8.43;;;;;;;;;;5031567;28;20041;-70
2023/01/20 07:26:01;;;;;;;21.13;9.45;;;;;;;;;;5031805;28;20025;-70
2023/01/20 07:28:26;;;;;;;28.52;11.32;;;;;;;;;;5031602;28;20037;-70
2023/01/20 07:30:52;;;;;;;18.70;7.95;;;;;;;;;;5031526;28;20116;-70
2023/01/20 07:33:17;;;;;;;17.48;8.35;;;;;;;;;;5034041;28;20026;-70
2023/01/20 07:35:43;;;;;;;21.40;7.72;;;;;;;;;;5035297;28;20074;-71
2023/01/20 07:38:08;;;;;;;16.85;7.88;;;;;;;;;;5035352;28;20440;-70
2023/01/20 07:40:34;;;;;;;15.02;7.32;;;;;;;;;;5035101;28;20029;-70
2023/01/20 07:43:02;;;;;;;17.17;7.72;;;;;;;;;;5034941;28;20029;-71
2023/01/20 07:45:28;;;;;;;20.20;8.00;;;;;;;;;;5035055;28;20026;-70
2023/01/20 07:47:55;;;;;;;19.80;7.90;;;;;;;;;;5034946;28;20022;-71
2023/01/20 07:50:20;;;;;;;15.88;8.20;;;;;;;;;;5035043;28;20052;-71
2023/01/20 07:52:46;;;;;;;19.95;7.97;;;;;;;;;;5034620;28;20439;-71
2023/01/20 07:55:11;;;;;;;15.13;6.65;;;;;;;;;;5034978;28;20027;-71
2023/01/20 07:57:37;;;;;;;10.05;5.65;;;;;;;;;;5034730;28;20061;-71
2023/01/20 08:00:03;;;;;;;16.80;7.15;;;;;;;;;;5034875;28;20108;-70
2023/01/20 08:02:29;;;;;;;17.45;7.40;;;;;;;;;;5034345;28;20049;-71
2023/01/20 08:04:54;;;;;;;16.25;7.55;;;;;;;;;;5034609;28;20033;-71
2023/01/20 08:07:19;;;;;;;15.77;7.30;;;;;;;;;;5034575;28;20474;-71
2023/01/20 08:09:45;;;;;;;15.63;6.28;;;;;;;;;;5034647;28;20018;-71
2023/01/20 08:12:10;;;;;;;15.35;7.28;;;;;;;;;;5034344;28;20397;-71
2023/01/20 08:14:36;;;;;;;20.50;7.30;;;;;;;;;;5034641;28;20044;-71
2023/01/20 08:17:01;;;;;;;17.45;7.65;;;;;;;;;;5034503;28;20025;-71
2023/01/20 08:19:30;;;;;;;11.50;5.65;;;;;;;;;;5034516;28;20029;-71
2023/01/20 08:21:55;;;;;;;16.70;6.78;;;;;;;;;;5016602;28;20037;-71
2023/01/20 08:24:21;;;;;;;13.52;6.40;;;;;;;;;;5026962;28;20038;-71
2023/01/20 08:26:46;;;;;;;16.05;6.43;;;;;;;;;;5024029;28;20068;-71
2023/01/20 08:29:11;;;;;;;14.18;6.38;;;;;;;;;;5025257;28;20417;-71
2023/01/20 08:31:37;;;;;;;16.02;6.50;;;;;;;;;;5024699;28;20513;-71
2023/01/20 08:34:03;;;;;;;19.42;7.63;;;;;;;;;;5021886;28;20089;-71
2023/01/20 08:36:33;;;;;;;14.70;7.07;;;;;;;;;;5023509;28;20029;-71
2023/01/20 08:39:03;;;;;;;15.73;7.30;;;;;;;;;;5023780;28;20022;-71
2023/01/20 08:41:35;;;;;;;16.27;7.00;;;;;;;;;;5022262;28;20390;-71
2023/01/20 08:44:03;;;;;;;12.52;6.22;;;;;;;;;;5021796;28;20332;-71
2023/01/20 08:46:29;;;;;;;18.08;7.28;;;;;;;;;;5023392;28;20021;-71
2023/01/20 08:48:55;;;;;;;18.50;7.32;;;;;;;;;;5005132;28;20366;-70
2023/01/20 08:51:27;;;;;;;19.38;7.15;;;;;;;;;;5021894;28;20029;-71
2023/01/20 08:53:52;;;;;;;12.40;6.35;;;;;;;;;;5022436;28;20064;-71
2023/01/20 08:56:18;;;;;;;14.75;6.38;;;;;;;;;;5021857;28;20057;-71
2023/01/20 08:58:44;;;;;;;15.77;6.55;;;;;;;;;;5023553;28;20048;-70
2023/01/20 09:01:23;;;;;;;13.70;6.47;;;;;;;;;;5021935;28;20030;-71
2023/01/20 09:03:49;;;;;;;13.77;6.10;;;;;;;;;;5023143;28;20547;-70
2023/01/20 09:06:14;;;;;;;15.60;6.65;;;;;;;;;;5022084;28;20042;-71
2023/01/20 09:08:41;;;;;;;14.77;6.93;;;;;;;;;;5021606;28;20068;-71
2023/01/20 09:11:09;;;;;;;14.30;6.78;;;;;;;;;;5022927;28;20516;-71
2023/01/20 09:13:35;;;;;;;18.10;7.18;;;;;;;;;;5022398;28;20021;-71
2023/01/20 09:16:00;;;;;;;14.32;7.03;;;;;;;;;;5021393;28;20378;-71
2023/01/20 09:18:26;;;;;;;15.52;6.78;;;;;;;;;;5023109;28;20104;-71
2023/01/20 09:20:52;;;;;;;14.10;6.90;;;;;;;;;;5021880;28;20033;-71
2023/01/20 09:23:17;;;;;;;19.10;7.50;;;;;;;;;;5021464;28;20441;-71
2023/01/20 09:25:43;;;;;;;21.85;8.60;;;;;;;;;;5022640;28;20021;-70
2023/01/20 09:28:08;;;;;;;24.80;13.43;;;;;;;;;;5021099;28;20466;-70
2023/01/20 09:30:33;;;;;;;32.22;12.48;;;;;;;;;;5022054;28;20361;-71
2023/01/20 09:32:59;;;;;;;27.25;16.50;;;;;;;;;;5022525;28;20478;-71
2023/01/20 09:35:25;;;;;;;17.38;7.53;;;;;;;;;;5020782;28;20477;-71
2023/01/20 09:44:00;;;;;;;12.63;6.72;;;;;;;;;;5022307;28;20425;-71
2023/01/20 09:47:19;;;;;;;13.70;6.70;;;;;;;;;;5019556;28;20040;-70
2023/01/20 09:55:28;;;;;;;19.92;8.18;;;;;;;;;;5032059;28;20645;-69
2023/01/20 09:58:10;;;;;;;19.88;7.72;;;;;;;;;;5048061;28;20174;-69
2023/01/20 10:00:38;;;;;;;22.02;9.07;;;;;;;;;;5032497;28;20040;-70
2023/01/20 10:03:24;;;;;;;15.77;8.40;;;;;;;;;;5032156;28;20107;-69
2023/01/20 10:05:54;;;;;;;14.65;7.40;;;;;;;;;;5032609;28;20029;-69
2023/01/20 10:08:28;;;;;;;22.02;8.00;;;;;;;;;;5032315;28;20386;-69
2023/01/20 10:11:09;;;;;;;29.98;11.00;;;;;;;;;;5032467;28;20048;-69
2023/01/20 10:14:03;;;;;;;20.85;9.00;;;;;;;;;;5032529;28;20056;-69
2023/01/20 10:16:35;;;;;;;22.30;9.00;;;;;;;;;;5031893;28;20037;-70
2023/01/20 10:19:09;;;;;;;29.70;9.80;;;;;;;;;;5032422;28;20072;-69
2023/01/20 10:21:50;;;;;;;22.88;9.40;;;;;;;;;;5014791;28;20448;-70
2023/01/20 10:24:27;;;;;;;17.80;7.15;;;;;;;;;;5032121;28;20030;-70
2023/01/20 10:27:01;;;;;;;16.13;7.40;;;;;;;;;;5032366;28;20381;-70
2023/01/20 10:29:40;;;;;;;16.60;8.07;;;;;;;;;;5031541;28;20064;-70
2023/01/20 10:32:46;;;;;;;20.83;10.00;;;;;;;;;;5032357;28;20090;-69
2023/01/20 10:35:35;;;;;;;14.63;6.38;;;;;;;;;;5021219;28;20052;-70
2023/01/20 10:38:03;;;;;;;14.55;7.07;;;;;;;;;;5032174;28;20413;-69
2023/01/20 10:40:35;;;;;;;14.45;6.45;;;;;;;;;;5032122;28;20077;-70
2023/01/20 10:43:10;;;;;;;13.30;5.78;;;;;;;;;;5032247;28;20032;-69
2023/01/20 10:45:53;;;;;;;15.63;7.15;;;;;;;;;;5030797;28;20026;-69
2023/01/20 10:48:21;;;;;;;16.55;6.18;;;;;;;;;;5032039;28;20053;-69
2023/01/20 10:50:56;;;;;;;14.70;6.82;;;;;;;;;;5032079;28;20064;-70
2023/01/20 10:53:38;;;;;;;15.20;6.80;;;;;;;;;;5031962;28;20030;-70
2023/01/20 10:56:36;;;;;;;13.68;6.18;;;;;;;;;;5032288;28;20029;-70
2023/01/20 10:59:11;;;;;;;16.30;7.13;;;;;;;;;;5032066;28;20040;-70
2023/01/20 11:01:36;;;;;;;17.92;8.02;;;;;;;;;;5025875;28;20099;-70
2023/01/20 11:04:02;;;;;;;14.85;6.85;;;;;;;;;;5028626;28;20454;-70
2023/01/20 11:06:27;;;;;;;29.98;11.23;;;;;;;;;;5029959;28;20025;-70
2023/01/20 11:08:54;;;;;;;38.55;12.75;;;;;;;;;;5006829;28;20022;-70
2023/01/20 11:11:24;;;;;;;14.13;7.15;;;;;;;;;;5027063;28;20032;-70
2023/01/20 11:13:52;;;;;;;21.17;8.68;;;;;;;;;;5035643;28;20584;-70
2023/01/20 11:16:27;;;;;;;19.58;9.05;;;;;;;;;;5035654;28;20508;-70
2023/01/20 11:19:01;;;;;;;13.15;7.25;;;;;;;;;;5035686;28;20037;-70
2023/01/20 11:21:30;;;;;;;15.48;6.60;;;;;;;;;;5035381;28;20083;-69
2023/01/20 11:23:56;;;;;;;22.63;9.90;;;;;;;;;;5031163;28;20026;-70
2023/01/20 11:26:34;;;;;;;17.77;8.23;;;;;;;;;;5024299;28;20036;-70
2023/01/20 11:29:09;;;;;;;12.13;6.63;;;;;;;;;;5035426;28;20029;-70
2023/01/20 11:31:50;;;;;;;16.92;5.93;;;;;;;;;;5017142;28;20109;-69
2023/01/20 11:34:28;;;;;;;19.13;7.32;;;;;;;;;;5015566;28;20026;-70
2023/01/20 11:37:05;;;;;;;17.02;6.72;;;;;;;;;;5015365;28;20121;-69
2023/01/20 11:39:49;;;;;;;15.30;7.32;;;;;;;;;;5015336;28;20026;-70
2023/01/20 11:42:26;;;;;;;18.38;7.70;;;;;;;;;;5021326;28;20036;-69
2023/01/20 11:45:03;;;;;;;22.38;9.27;;;;;;;;;;5035454;28;20397;-69
2023/01/20 11:47:35;;;;;;;14.48;6.75;;;;;;;;;;5035052;28;20029;-69
2023/01/20 11:50:03;;;;;;;15.60;6.82;;;;;;;;;;5034643;28;20079;-70
2023/01/20 11:52:30;;;;;;;18.17;8.48;;;;;;;;;;5033058;28;20030;-68
2023/01/20 11:55:23;;;;;;;13.93;7.10;;;;;;;;;;5033951;28;20052;-70
2023/01/20 11:57:55;;;;;;;19.15;6.88;;;;;;;;;;5034944;28;20032;-69
2023/01/20 12:00:28;;;;;;;15.45;7.35;;;;;;;;;;5034725;28;20025;-68
2023/01/20 12:03:15;;;;;;;16.25;7.80;;;;;;;;;;5034610;28;20045;-69
2023/01/20 12:05:51;;;;;;;18.08;7.30;;;;;;;;;;5014668;28;20379;-69
2023/01/20 12:08:29;;;;;;;17.10;8.02;;;;;;;;;;5022747;28;20482;-69
2023/01/20 12:11:00;;;;;;;12.40;6.63;;;;;;;;;;5032421;28;20029;-69
2023/01/20 12:14:18;;;;;;;17.77;7.57;;;;;;;;;;5034631;28;20035;-69
2023/01/20 12:16:17;;;;;;;17.33;7.47;;;;;;;;;;5034498;28;20045;-70
2023/01/20 12:18:51;;;;;;;10.90;6.90;;;;;;;;;;5028260;28;20381;-69
2023/01/20 12:21:16;;;;;;;28.58;11.50;;;;;;;;;;5030268;28;20123;-70
2023/01/20 12:24:19;;;;;;;23.17;10.52;;;;;;;;;;5025528;28;20046;-68
2023/01/20 12:26:45;;;;;;;20.48;9.43;;;;;;;;;;5033516;28;20137;-68
2023/01/20 12:29:35;;;;;;;18.52;8.18;;;;;;;;;;5034148;28;20102;-69
2023/01/20 12:32:01;;;;;;;;;;;;;;;;;;5030751;28;20029;-68
2023/01/20 12:34:29;;;;;;;26.75;10.90;;;;;;;;;;5033880;28;19954;-68
2023/01/20 12:36:55;;;;;;;32.15;12.93;;;;;;;;;;5034131;28;20032;-69
2023/01/20 12:40:03;;;;;;;15.27;6.97;;;;;;;;;;5033743;28;20108;-69
2023/01/20 12:42:43;;;;;;;15.70;6.85;;;;;;;;;;5034297;28;20079;-73
2023/01/20 12:45:27;;;;;;;;;;;;;;;;;;5034472;28;20109;-70
2023/01/20 12:47:55;;;;;;;23.13;9.45;;;;;;;;;;5033692;28;19917;-70
2023/01/20 12:50:32;;;;;;;19.42;9.10;;;;;;;;;;5033911;28;20100;-70
2023/01/20 12:53:38;;;;;;;16.20;7.82;;;;;;;;;;5029374;28;20038;-71
2023/01/20 12:56:39;;;;;;;18.98;7.22;;;;;;;;;;4955011;28;20035;-71
2023/01/20 12:59:32;;;;;;;19.70;7.55;;;;;;;;;;4958821;28;20075;-71
2023/01/20 13:01:57;;;;;;;15.60;7.22;;;;;;;;;;4961206;28;20412;-71
2023/01/20 13:04:37;;;;;;;15.48;7.63;;;;;;;;;;4965451;28;20059;-71
2023/01/20 13:07:18;;;;;;;15.13;7.63;;;;;;;;;;4953456;28;20043;-71
2023/01/20 13:09:51;;;;;;;;;;;;;;;;;;4953953;29;20038;-71
2023/01/20 13:12:42;;;;;;;15.50;7.22;;;;;;;;;;4953345;29;19914;-70
2023/01/20 13:15:38;;;;;;;16.77;7.90;;;;;;;;;;4953086;28;20392;-70
2023/01/20 13:18:04;;;;;;;19.10;8.75;;;;;;;;;;4952436;28;20443;-70
2023/01/20 13:20:30;;;;;;;18.90;8.15;;;;;;;;;;4972458;28;20035;-70
2023/01/20 13:22:59;;;;;;;19.42;7.88;;;;;;;;;;4972316;28;20113;-70
2023/01/20 13:25:25;;;;;;;17.73;8.60;;;;;;;;;;4971949;28;20051;-71
2023/01/20 13:27:53;;;;;;;21.00;7.28;;;;;;;;;;4971762;28;20058;-70
2023/01/20 13:30:42;;;;;;;15.60;8.30;;;;;;;;;;4957125;28;20038;-69
2023/01/20 13:33:28;;;;;;;17.90;8.13;;;;;;;;;;4994908;28;20042;-70
2023/01/20 13:35:54;;;;;;;14.25;8.15;;;;;;;;;;5013333;28;20029;-70
2023/01/20 13:38:24;;;;;;;15.95;7.00;;;;;;;;;;5013261;28;20026;-70
2023/01/20 13:40:54;;;;;;;14.85;7.25;;;;;;;;;;5013287;28;20493;-69
2023/01/20 13:43:24;;;;;;;17.73;7.85;;;;;;;;;;5012878;28;20488;-70
2023/01/20 13:46:16;;;;;;;18.27;7.07;;;;;;;;;;5012839;28;20435;-71
2023/01/20 13:49:18;;;;;;;19.10;7.20;;;;;;;;;;5012981;28;20033;-71
2023/01/20 13:51:45;;;;;;;15.65;7.47;;;;;;;;;;4995324;28;20033;-70
2023/01/20 13:54:27;;;;;;;18.60;7.95;;;;;;;;;;5013051;28;20032;-71
2023/01/20 13:57:26;;;;;;;20.73;7.68;;;;;;;;;;5013004;28;20042;-70
2023/01/20 13:59:53;;;;;;;17.33;6.45;;;;;;;;;;5012566;28;20037;-70
2023/01/20 14:02:21;;;;;;;16.13;8.68;;;;;;;;;;5019043;28;20041;-70
2023/01/20 14:04:46;;;;;;;16.35;7.45;;;;;;;;;;5032428;28;20068;-70
2023/01/20 14:07:26;;;;;;;24.95;10.13;;;;;;;;;;5032332;28;20065;-70
2023/01/20 14:09:56;;;;;;;20.70;9.18;;;;;;;;;;5032518;28;20036;-71
2023/01/20 14:12:25;;;;;;;25.38;10.23;;;;;;;;;;5032407;28;20108;-71
2023/01/20 14:14:51;;;;;;;21.05;9.38;;;;;;;;;;5032322;28;20390;-71
2023/01/20 14:17:20;;;;;;;19.40;9.00;;;;;;;;;;5032196;28;20053;-71
2023/01/20 14:19:48;;;;;;;18.15;8.15;;;;;;;;;;5032318;28;20034;-70
2023/01/20 14:22:19;;;;;;;33.80;14.13;;;;;;;;;;5032369;28;20025;-70
2023/01/20 14:24:47;;;;;;;90.75;33.78;;;;;;;;;;5032245;28;20124;-70
2023/01/20 14:27:34;;;;;;;59.20;31.23;;;;;;;;;;5032191;28;20025;-71
2023/01/20 14:30:31;;;;;;;30.65;17.80;;;;;;;;;;5032174;28;20045;-71
2023/01/20 14:32:57;;;;;;;34.30;19.42;;;;;;;;;;4990679;28;20054;-70
2023/01/20 14:35:32;;;;;;;31.52;16.00;;;;;;;;;;4990548;28;20034;-70
2023/01/20 14:37:58;;;;;;;26.48;11.90;;;;;;;;;;4990872;28;20034;-71
2023/01/20 14:40:33;;;;;;;34.08;11.98;;;;;;;;;;4984267;28;20053;-71
2023/01/20 14:43:01;;;;;;;25.75;11.77;;;;;;;;;;4994443;28;20034;-71
2023/01/20 14:45:30;;;;;;;23.92;11.23;;;;;;;;;;4991220;28;20030;-71
2023/01/20 14:47:57;;;;;;;18.33;9.25;;;;;;;;;;4994823;28;20042;-71
2023/01/20 14:50:23;;;;;;;29.30;10.85;;;;;;;;;;4994858;28;20125;-71
2023/01/20 14:52:49;;;;;;;20.17;9.23;;;;;;;;;;4994784;28;20135;-69
2023/01/20 14:55:35;;;;;;;34.90;12.48;;;;;;;;;;4994680;28;20054;-69
2023/01/20 14:58:07;;;;;;;23.10;11.40;;;;;;;;;;4994299;28;20117;-69
2023/01/20 15:00:34;;;;;;;29.88;10.80;;;;;;;;;;4994327;28;20050;-69